Halltown, MO (65664)

2:32 PM CDT on July 26, 2016 (GMT -0500)
Rose Hill Acres | | Change Station

Elev 1339 ft 37.09 °N, 93.55 °W | Updated 6 seconds ago

Mostly Cloudy
Mostly Cloudy
88.3 °F
Feels Like 98 °F
N
5.9
Wind Variable Wind from North
Gusts 12.1 mph

Today
High -- | Low -- °F
--% Chance of Precip.
Yesterday
High -- | Low -- °F
Precip. -- in
Pressure 29.99 in
Visibility 10.0 miles
Clouds Mostly Cloudy 2300 ft
Mostly Cloudy 7000 ft
Heat Index 98 °F
Dew Point 75 °F
Humidity 64%
Rainfall 0.00 in
Snow Depth Not available.
6:14 AM 8:26 PM
Waning Gibbous, 52% visible
SPECI KSGF 261919Z 36011KT 10SM BKN023 BKN070 30/23 A2999 RMK AO2 T03000233
Pressure 29.99 in
Visibility 10.0 miles
Clouds Mostly Cloudy 2300 ft
Mostly Cloudy 7000 ft
Heat Index 98 °F
Dew Point 75 °F
Humidity 64%
Rainfall 0.00 in
Snow Depth Not available.
6:14 AM 8:26 PM
Waning Gibbous, 52% visible
SPECI KSGF 261919Z 36011KT 10SM BKN023 BKN070 30/23 A2999 RMK AO2 T03000233

10-Day Weather Forecast

Almanac

Astronomy

Jul. 26, 2016 Rise Set
Actual Time
Civil Twilight
Nautical Twilight
Astronomical Twilight
Moon
Length of Visible Light
Length of Day
Tomorrow will be .
, % of the Moon is Illuminated

Today's Extremes

State Highs State Lows

Community

WunderPhotos

Upload Photos

1,927,665 photos uploaded!

WunderBlog® & News

Nearby

Air Quality

  Air Quality AQ Index Pollutant
Not available.

Snow Depth

Station Depth Elevation

Earthquake Activity

City Distance Mag. Time & Date
Minimum magnitude displayed is 2.5.

Coastal Water Temperatures

Place Temperature

Stations

Nearby Weather Stations

Station Location Temp. Windchill Dew Point Humidity Wind Precip. Elev Updated Type
                   

Watches & Warnings

There are currently no watches in effect.